createdAt,value
2023-02-02T00:04:59.927Z,29.58
2023-02-02T00:10:03.677Z,34.33
2023-02-02T00:15:09.771Z,24.87
2023-02-02T00:20:13.679Z,26.58
2023-02-02T00:25:17.575Z,29.05
2023-02-02T00:30:23.162Z,24.30
2023-02-02T00:35:26.906Z,33.95
2023-02-02T00:40:30.641Z,25.80
2023-02-02T00:45:35.757Z,33.88
2023-02-02T00:50:39.601Z,36.28
2023-02-02T00:55:43.361Z,27.20
2023-02-02T01:00:48.533Z,30.20
2023-02-02T01:05:52.346Z,30.27
2023-02-02T01:11:00.022Z,29.52
2023-02-02T01:16:06.461Z,26.85
2023-02-02T01:21:12.302Z,28.15
2023-02-02T01:26:17.285Z,28.38
2023-02-02T01:31:22.481Z,26.58
2023-02-02T01:36:26.367Z,31.25
2023-02-02T01:41:30.283Z,28.08
2023-02-02T01:46:37.047Z,31.65
2023-02-02T01:51:44.375Z,37.50
2023-02-02T01:56:52.524Z,25.25
2023-02-02T02:01:57.695Z,33.25
2023-02-02T02:07:03.905Z,23.90
2023-02-02T02:12:13.397Z,19.00
2023-02-02T02:17:39.217Z,27.25
2023-02-02T02:23:30.273Z,26.12
2023-02-02T02:28:58.232Z,34.00
2023-02-02T02:34:11.263Z,36.33
2023-02-02T02:39:21.875Z,28.50
2023-02-02T02:44:28.624Z,26.90
2023-02-02T02:49:33.814Z,23.33
2023-02-02T02:54:50.684Z,30.23
2023-02-02T03:00:04.912Z,28.70
2023-02-02T03:05:31.788Z,34.60
2023-02-02T03:10:37.369Z,29.37
2023-02-02T03:15:42.535Z,34.83
2023-02-02T03:20:47.904Z,21.00
2023-02-02T03:25:51.795Z,31.70
2023-02-02T03:30:56.811Z,25.62
2023-02-02T03:36:01.983Z,21.62
2023-02-02T03:41:06.771Z,31.55
2023-02-02T03:46:10.547Z,28.42
2023-02-02T03:51:16.963Z,34.58
2023-02-02T03:56:20.776Z,54.85
2023-02-02T04:01:29.542Z,19.73
2023-02-02T04:06:34.627Z,25.67
2023-02-02T04:11:39.385Z,29.23
2023-02-02T04:16:43.809Z,33.03
2023-02-02T04:21:48.881Z,27.73
2023-02-02T04:26:52.727Z,28.10
2023-02-02T04:31:56.599Z,20.12
2023-02-02T04:37:01.751Z,25.83
2023-02-02T04:42:05.841Z,29.10
2023-02-02T04:47:09.560Z,20.67
2023-02-02T04:52:14.624Z,20.25
2023-02-02T04:57:18.353Z,23.75
2023-02-02T05:02:22.087Z,24.92
2023-02-02T05:07:27.246Z,20.15
2023-02-02T05:12:30.950Z,33.03
2023-02-02T05:17:34.664Z,31.52
2023-02-02T05:22:39.783Z,20.88
2023-02-02T05:27:44.421Z,25.23
2023-02-02T05:32:48.121Z,21.23
2023-02-02T05:37:53.272Z,27.62
2023-02-02T05:42:57.051Z,24.30
2023-02-02T05:48:00.845Z,23.55
2023-02-02T05:53:06.048Z,26.27
2023-02-02T05:58:09.821Z,36.92
2023-02-02T06:03:13.774Z,18.60
2023-02-02T06:08:18.857Z,26.55
2023-02-02T06:13:22.683Z,25.27
2023-02-02T06:18:26.430Z,26.60
2023-02-02T06:23:31.529Z,30.40
2023-02-02T06:28:35.250Z,16.45
2023-02-02T06:33:39.162Z,21.00
2023-02-02T06:38:44.493Z,21.58
2023-02-02T06:43:48.547Z,20.90
2023-02-02T06:48:52.304Z,19.00
2023-02-02T06:53:59.496Z,32.35
2023-02-02T06:59:03.413Z,22.00
2023-02-02T07:04:07.120Z,21.77
2023-02-02T07:09:12.189Z,22.55
2023-02-02T07:14:16.126Z,27.40
2023-02-02T07:19:19.905Z,24.15
2023-02-02T07:24:25.017Z,23.92
2023-02-02T07:29:28.798Z,17.02
2023-02-02T07:34:32.504Z,20.35
2023-02-02T07:39:37.805Z,23.87
2023-02-02T07:44:41.578Z,18.83
2023-02-02T07:49:45.901Z,22.73
2023-02-02T07:54:50.956Z,22.35
2023-02-02T07:59:54.990Z,17.65
2023-02-02T08:04:58.689Z,23.85
2023-02-02T08:10:04.480Z,20.48
2023-02-02T08:15:09.020Z,31.65
2023-02-02T08:20:14.159Z,18.83
2023-02-02T08:25:19.324Z,24.37
2023-02-02T08:30:23.128Z,20.55
2023-02-02T08:35:27.126Z,18.80
2023-02-02T08:40:32.565Z,13.07
2023-02-02T08:46:04.565Z,12.40
2023-02-02T08:51:00.400Z,19.52
2023-02-02T08:56:07.881Z,22.27
2023-02-02T09:01:15.967Z,29.13
2023-02-02T09:06:21.767Z,14.30
2023-02-02T09:11:29.298Z,22.83
2023-02-02T09:16:34.769Z,19.40
2023-02-02T09:21:38.547Z,24.92
2023-02-02T09:26:44.691Z,22.48
2023-02-02T09:31:48.654Z,17.85
2023-02-02T09:36:55.373Z,25.27
2023-02-02T09:42:35.817Z,22.45
2023-02-02T09:47:55.596Z,20.00
2023-02-02T09:53:07.779Z,18.25
2023-02-02T09:58:19.833Z,24.27
2023-02-02T10:03:28.381Z,19.98
2023-02-02T10:08:37.692Z,25.80
2023-02-02T10:13:45.397Z,20.85
2023-02-02T10:18:56.092Z,24.87
2023-02-02T10:24:02.208Z,25.70
2023-02-02T10:29:16.681Z,22.85
2023-02-02T10:34:25.865Z,19.33
2023-02-02T10:39:41.168Z,20.30
2023-02-02T10:44:51.653Z,14.27
2023-02-02T10:50:08.906Z,18.35
2023-02-02T10:55:22.835Z,20.00
2023-02-02T11:00:34.997Z,22.27
2023-02-02T11:05:56.920Z,27.87
2023-02-02T11:11:12.275Z,18.52
2023-02-02T11:16:38.809Z,15.18
2023-02-02T11:21:48.521Z,19.27
2023-02-02T11:26:56.283Z,13.77
2023-02-02T11:32:19.571Z,16.42
2023-02-02T11:37:25.686Z,17.87
2023-02-02T11:42:29.435Z,16.83
2023-02-02T11:47:35.450Z,17.50
2023-02-02T11:52:40.449Z,15.68
2023-02-02T11:58:12.161Z,17.25
2023-02-02T12:03:27.609Z,15.55
2023-02-02T12:08:31.897Z,32.00
2023-02-02T12:13:45.841Z,19.42
2023-02-02T12:19:01.784Z,20.00
2023-02-02T12:24:24.515Z,18.80
2023-02-02T12:29:54.655Z,16.77
2023-02-02T12:35:16.398Z,21.95
2023-02-02T12:40:35.020Z,15.60
2023-02-02T12:45:50.503Z,26.92
2023-02-02T12:51:08.766Z,20.08
2023-02-02T13:01:38.746Z,21.73
2023-02-02T13:07:05.055Z,21.35
2023-02-02T13:12:11.114Z,13.70
2023-02-02T13:17:20.849Z,16.77
2023-02-02T13:22:30.829Z,15.93
2023-02-02T13:27:34.703Z,19.12
2023-02-02T13:32:41.676Z,14.68
2023-02-02T13:37:54.678Z,18.73
2023-02-02T13:43:05.539Z,27.73
2023-02-02T13:48:19.579Z,17.12
2023-02-02T13:53:42.605Z,23.92
2023-02-02T13:59:01.873Z,10.60
2023-02-02T14:04:06.874Z,14.80
2023-02-02T14:09:19.937Z,15.73
2023-02-02T14:14:35.252Z,21.02
2023-02-02T14:19:53.816Z,14.13
2023-02-02T14:24:58.909Z,16.08
2023-02-02T14:30:21.385Z,19.40
2023-02-02T14:36:03.945Z,15.13
2023-02-02T14:41:37.197Z,13.57
2023-02-02T14:46:48.149Z,20.20
2023-02-02T14:51:56.362Z,13.07
2023-02-02T15:02:15.958Z,25.80
2023-02-02T15:07:54.516Z,17.52
2023-02-02T15:13:08.293Z,24.98
2023-02-02T15:18:18.820Z,21.27
2023-02-02T15:23:28.373Z,27.27
2023-02-02T15:28:43.260Z,18.92
2023-02-02T15:33:51.560Z,19.65
2023-02-02T15:44:02.321Z,15.85
2023-02-02T15:49:32.765Z,12.73
2023-02-02T15:54:38.700Z,17.55
2023-02-02T15:59:45.943Z,17.42
2023-02-02T16:04:50.047Z,20.00
2023-02-02T16:09:56.873Z,18.73
2023-02-02T16:15:02.172Z,28.05
2023-02-02T16:20:12.305Z,18.75
2023-02-02T16:25:20.125Z,25.27
2023-02-02T16:30:28.952Z,24.55
2023-02-02T16:35:35.902Z,19.12
2023-02-02T16:40:39.805Z,15.07
2023-02-02T16:45:49.220Z,16.95
2023-02-02T16:51:12.576Z,13.07
2023-02-02T16:56:27.342Z,14.07
2023-02-02T17:01:39.278Z,12.68
2023-02-02T17:06:52.446Z,15.88
2023-02-02T17:11:59.375Z,13.73
2023-02-02T17:17:07.139Z,11.57
2023-02-02T17:22:11.918Z,16.30
2023-02-02T17:27:18.636Z,11.32
2023-02-02T17:32:24.934Z,10.60
2023-02-02T17:37:28.683Z,11.77
2023-02-02T17:42:34.637Z,12.10
2023-02-02T17:47:39.986Z,10.95
2023-02-02T17:52:45.754Z,13.77
2023-02-02T17:57:49.737Z,10.55
2023-02-02T18:03:00.255Z,9.00
2023-02-02T18:08:04.094Z,12.52
2023-02-02T18:13:09.084Z,9.20
2023-02-02T18:18:14.225Z,15.25
2023-02-02T18:23:19.607Z,7.60
2023-02-02T18:28:23.413Z,12.30
2023-02-02T18:33:28.747Z,13.52
2023-02-02T18:38:32.481Z,11.05
2023-02-02T18:43:36.214Z,11.63
2023-02-02T18:48:44.422Z,12.18
2023-02-02T18:53:48.983Z,8.93
2023-02-02T18:58:53.140Z,12.68
2023-02-02T19:03:58.550Z,12.85
2023-02-02T19:09:02.338Z,7.87
2023-02-02T19:14:14.426Z,12.37
2023-02-02T19:19:24.500Z,9.32
2023-02-02T19:24:35.914Z,13.90
2023-02-02T19:29:39.825Z,12.77
2023-02-02T19:34:45.522Z,9.70
2023-02-02T19:39:49.299Z,11.77
2023-02-02T19:44:54.323Z,11.77
2023-02-02T19:50:00.917Z,13.38
2023-02-02T19:55:19.453Z,11.32
2023-02-02T20:00:27.739Z,10.23
2023-02-02T20:05:38.739Z,13.45
2023-02-02T20:10:44.491Z,10.30
2023-02-02T20:15:50.091Z,13.27
2023-02-02T20:20:57.297Z,10.85
2023-02-02T20:26:04.795Z,11.27
2023-02-02T20:31:11.184Z,9.27
2023-02-02T20:36:30.148Z,16.98
2023-02-02T20:41:33.979Z,14.77
2023-02-02T20:46:38.277Z,11.20
2023-02-02T20:51:43.894Z,14.52
2023-02-02T20:56:47.914Z,11.95
2023-02-02T21:01:52.969Z,13.50
2023-02-02T21:06:59.425Z,9.90
2023-02-02T21:12:03.211Z,16.65
2023-02-02T21:17:14.715Z,19.92
2023-02-02T21:22:20.181Z,16.55
2023-02-02T21:27:23.964Z,14.50
2023-02-02T21:32:27.775Z,18.83
2023-02-02T21:37:35.769Z,16.37
2023-02-02T21:42:39.802Z,21.67
2023-02-02T21:47:52.013Z,12.85
2023-02-02T21:53:15.346Z,17.35
2023-02-02T21:58:22.925Z,17.15
2023-02-02T22:03:30.642Z,25.40
2023-02-02T22:08:37.746Z,12.45
2023-02-02T22:13:41.615Z,20.48
2023-02-02T22:18:45.608Z,18.10
2023-02-02T22:23:50.666Z,22.02
2023-02-02T22:28:54.429Z,23.85
2023-02-02T22:33:58.392Z,20.92
2023-02-02T22:39:03.475Z,17.60
2023-02-02T22:44:07.263Z,19.15
2023-02-02T22:49:10.942Z,17.30
2023-02-02T22:54:16.075Z,18.10
2023-02-02T22:59:19.815Z,18.52
2023-02-02T23:04:23.541Z,18.58
2023-02-02T23:09:28.608Z,19.90
2023-02-02T23:14:32.317Z,21.37
2023-02-02T23:19:36.072Z,22.05
2023-02-02T23:24:41.145Z,28.30
2023-02-02T23:29:44.955Z,20.02
2023-02-02T23:34:48.697Z,26.45
2023-02-02T23:39:53.804Z,21.45
2023-02-02T23:44:57.517Z,33.67
2023-02-02T23:50:04.250Z,17.35
2023-02-02T23:55:10.777Z,18.20
